Deane, Kentucky
Current Conditions -  °F | °C
As of 4:55 AM on Friday 31 Oct 2014 (Local Time) from KLNP Reporting Station
Clear Clear  
Wind Chill: 36°   Ceiling: Unl
Heat Index: 36°   Visibility: 10mi
Dew Point: 36°   Wind: 3mph
Humidity: 100%   Direction: 210°SSW
Pressure: 29.97"   Gusts: NA
Location:  37.24°N, 82.78°W
Report Text: KLNP 310855Z AUTO 21003KT 10SM CLR 02/02 A2997 RMK AO2
Loading
Personal Weather Stations






























Interactive Weather Map
Tropical Storm Tracking
New forecast layout! Learn more

10-Day Weather Forecast

Advertisements
Track Severe Weather on mobile